Yabucoa, PR (00767)

8:07 PM AST on July 07, 2015 (GMT -0400)
Manejo de Emergencias Maunabo | | Change Station
CLOSE
Current Station
Personal Weather Station
Location: Maunabo, PR
Elevation: 374 ft
Nearby Weather Stations

Elev 374 ft 18.01 °N, 65.90 °W | Updated 20 minutes ago

Overcast
Overcast
83.4 °F
Feels Like 91 °F
N
5.0
Wind Variable Wind from ENE
Gusts 15.0 mph

Today
High -- | Low -- °F
--% Chance of Precip.
Yesterday
High -- | Low -- °F
Precip. -- in
5:53 AM 7:03 PM
Waning Gibbous, 60% visible
Pressure 30.09 in
Visibility 10.0 miles
Clouds Overcast 2900 ft
Heat Index 91 °F
Dew Point 75 °F
Humidity 75%
Rainfall in
Snow Depth Not available.
UV 0 out of 12
Pollen Not available.
Air Quality Not available.
Flu Activity Not available.
METAR TJNR 072353Z AUTO 06010KT 10SM OVC029 28/23 A3008 RMK AO2 SLP187 T02780233 10317 20278 53005 $

More Conditions Fewer Conditions

Pressure 30.09 in
Visibility 10.0 miles
Clouds Overcast 2900 ft
Heat Index 91 °F
Dew Point 75 °F
Humidity 75%
Rainfall in
Snow Depth Not available.
UV 0 out of 12
Pollen Not available.
Air Quality Not available.
Flu Activity Not available.
METAR TJNR 072353Z AUTO 06010KT 10SM OVC029 28/23 A3008 RMK AO2 SLP187 T02780233 10317 20278 53005 $

More Conditions Fewer Conditions

10-Day Weather Forecast

×

Almanac

Astronomy

Jul. 07, 2015 Rise Set
Actual Time
Civil Twilight
Nautical Twilight
Astronomical Twilight
Moon
Length of Visible Light
Length of Day
Tomorrow will be .
, % of the Moon is Illuminated

Today's Extremes

State Highs State Lows

Community

WunderPhotos

Upload Photos

1,835,961 photos uploaded!

WunderBlogs® & News

Nearby

Air Quality

  Air Quality AQ Index Pollutant
Not available.

Snow Depth

Station Depth Elevation

Earthquake Activity

City Distance Mag. Time & Date
Minimum magnitude displayed is 2.5.

Coastal Water Temperatures

Place Temperature

Stations

Nearby Weather Stations

Station Location Temp. Windchill Dew Point Humidity Wind Precip. Elev Updated Type